Time;durP1;ratioP1;P1;durP2;ratioP2;P2;SDS_P1;SDS_P2;PMS_P1;PMS_P2;Temp;Humidity;BMP_temperature;BMP_pressure;BME280_temperature;BME280_humidity;BME280_pressure;Samples;Min_cycle;Max_cycle;Signal;HPM_P1;HPM_P2
2023/06/06 00:00:21;;;;;;;8.32;2.33;;;12.50;99.90;;;;;;4955949;29;20413;-87
2023/06/06 00:02:48;;;;;;;7.68;2.42;;;12.60;99.90;;;;;;4956879;29;20055;-86
2023/06/06 00:08:02;;;;;;;9.75;2.45;;;12.50;99.90;;;;;;4956523;28;20039;-85
2023/06/06 00:10:28;;;;;;;8.60;2.63;;;12.50;99.90;;;;;;4938579;29;20059;-87
2023/06/06 00:12:55;;;;;;;9.70;2.55;;;12.50;99.90;;;;;;4938870;29;20481;-83
2023/06/06 00:15:22;;;;;;;8.80;2.40;;;12.50;99.90;;;;;;4939559;29;20047;-85
2023/06/06 00:17:55;;;;;;;8.68;2.67;;;12.50;99.90;;;;;;4955007;29;20130;-86
2023/06/06 00:20:22;;;;;;;9.07;2.58;;;12.50;99.90;;;;;;4939765;29;20677;-88
2023/06/06 00:22:53;;;;;;;8.82;2.28;;;12.50;99.90;;;;;;4955381;29;20359;-86
2023/06/06 00:25:21;;;;;;;6.63;2.15;;;12.50;99.90;;;;;;4954283;29;20055;-84
2023/06/06 00:27:48;;;;;;;8.85;2.15;;;12.40;99.90;;;;;;4955219;29;20351;-85
2023/06/06 00:30:15;;;;;;;8.13;2.63;;;12.50;99.90;;;;;;4970637;28;20246;-85
2023/06/06 00:32:42;;;;;;;11.27;2.30;;;12.40;99.90;;;;;;4955752;29;20039;-85
2023/06/06 00:37:55;;;;;;;11.77;2.97;;;12.30;99.90;;;;;;4970795;28;20058;-87
2023/06/06 00:40:21;;;;;;;8.73;2.95;;;12.30;99.90;;;;;;4955916;29;20047;-86
2023/06/06 00:42:48;;;;;;;10.05;2.70;;;12.30;99.90;;;;;;4955622;29;20047;-85
2023/06/06 00:45:16;;;;;;;8.77;2.88;;;12.30;99.90;;;;;;4955643;28;20059;-87
2023/06/06 00:47:43;;;;;;;12.68;3.17;;;12.30;99.90;;;;;;4955548;29;20055;-87
2023/06/06 00:50:12;;;;;;;9.77;2.80;;;12.30;99.90;;;;;;4954771;29;20040;-84
2023/06/06 00:52:40;;;;;;;8.48;2.90;;;12.30;99.90;;;;;;4940099;29;20054;-85
2023/06/06 00:55:09;;;;;;;8.23;2.20;;;12.30;99.90;;;;;;4971578;28;20047;-85
2023/06/06 00:57:36;;;;;;;11.60;3.28;;;12.20;99.90;;;;;;4954612;29;20050;-86
2023/06/06 01:00:08;;;;;;;9.85;3.03;;;12.20;99.90;;;;;;4971118;28;20047;-86
2023/06/06 01:02:37;;;;;;;6.60;2.42;;;12.20;99.90;;;;;;4955600;29;20058;-85
2023/06/06 01:05:06;;;;;;;10.63;3.05;;;12.20;99.90;;;;;;4970282;28;20537;-86
2023/06/06 01:07:35;;;;;;;9.57;2.60;;;12.20;99.90;;;;;;4957628;28;20063;-88
2023/06/06 01:10:02;;;;;;;11.30;2.90;;;12.20;99.90;;;;;;4957972;29;20050;-88
2023/06/06 01:12:29;;;;;;;11.18;2.83;;;12.20;99.90;;;;;;4975133;28;20047;-87
2023/06/06 01:14:58;;;;;;;8.98;3.10;;;12.30;99.90;;;;;;4958868;29;20043;-85
2023/06/06 01:17:27;;;;;;;9.32;2.97;;;12.20;99.90;;;;;;4958068;29;20378;-86
2023/06/06 01:19:54;;;;;;;6.85;2.33;;;12.30;99.90;;;;;;4974684;28;20582;-84
2023/06/06 01:22:22;;;;;;;10.40;2.70;;;12.30;99.90;;;;;;4955747;28;20054;-86
2023/06/06 01:24:50;;;;;;;9.77;2.60;;;12.30;99.90;;;;;;4938888;29;20379;-85
2023/06/06 01:27:17;;;;;;;11.15;3.05;;;12.30;99.90;;;;;;4939197;29;20059;-87
2023/06/06 01:29:44;;;;;;;7.50;2.30;;;12.30;99.90;;;;;;4939302;29;20091;-85
2023/06/06 01:32:11;;;;;;;8.43;2.90;;;12.20;99.90;;;;;;4938613;29;20048;-86
2023/06/06 01:34:38;;;;;;;8.70;3.10;;;12.20;99.90;;;;;;4939436;29;20039;-87
2023/06/06 01:37:05;;;;;;;12.82;3.03;;;12.20;99.90;;;;;;4938600;29;20065;-86
2023/06/06 01:39:32;;;;;;;7.43;2.53;;;12.20;99.90;;;;;;4939096;29;20466;-84
2023/06/06 01:41:59;;;;;;;13.13;3.00;;;12.30;99.90;;;;;;4939499;29;20490;-86
2023/06/06 01:44:27;;;;;;;8.45;2.63;;;12.30;99.90;;;;;;4938075;29;20079;-84
2023/06/06 01:46:54;;;;;;;11.05;3.30;;;12.30;99.90;;;;;;4954962;29;20051;-85
2023/06/06 01:49:21;;;;;;;15.05;3.58;;;12.30;99.90;;;;;;4939104;29;20059;-87
2023/06/06 01:51:49;;;;;;;11.88;3.30;;;12.20;99.90;;;;;;4938100;29;20118;-84
2023/06/06 01:54:16;;;;;;;9.05;2.97;;;12.20;99.90;;;;;;4939023;29;20395;-86
2023/06/06 01:56:43;;;;;;;7.85;2.63;;;12.20;99.90;;;;;;4938108;29;20055;-85
2023/06/06 01:59:09;;;;;;;9.65;2.83;;;12.20;99.90;;;;;;4938507;29;20047;-86
2023/06/06 02:01:36;;;;;;;7.00;3.05;;;12.20;99.90;;;;;;4938795;29;20052;-85
2023/06/06 02:06:51;;;;;;;10.93;2.75;;;12.20;99.90;;;;;;4939916;29;20040;-83
2023/06/06 02:09:18;;;;;;;12.02;2.72;;;12.20;99.90;;;;;;4938631;29;20526;-85
2023/06/06 02:11:45;;;;;;;7.43;2.83;;;12.20;99.90;;;;;;4937982;29;20051;-85
2023/06/06 02:14:15;;;;;;;13.95;3.08;;;12.20;99.90;;;;;;4938620;29;20044;-85
2023/06/06 02:16:45;;;;;;;10.43;3.03;;;12.10;99.90;;;;;;4937959;29;20048;-85
2023/06/06 02:19:12;;;;;;;11.57;3.03;;;12.10;99.90;;;;;;4937622;29;20474;-86
2023/06/06 02:21:41;;;;;;;9.82;3.10;;;12.20;99.90;;;;;;4938913;29;20423;-85
2023/06/06 02:26:55;;;;;;;9.93;3.30;;;12.10;99.90;;;;;;4954568;29;20060;-87
2023/06/06 02:29:23;;;;;;;13.85;2.83;;;12.10;99.90;;;;;;4939122;29;20114;-85
2023/06/06 02:31:50;;;;;;;10.77;2.70;;;12.20;99.90;;;;;;4937587;29;20383;-87
2023/06/06 02:34:17;;;;;;;9.32;2.90;;;12.20;99.90;;;;;;4938323;29;20071;-85
2023/06/06 02:36:44;;;;;;;11.15;2.88;;;12.30;99.90;;;;;;4937919;29;20054;-83
2023/06/06 02:39:11;;;;;;;8.77;2.83;;;12.30;99.90;;;;;;4940397;29;20077;-87
2023/06/06 02:41:38;;;;;;;10.80;2.38;;;12.20;99.90;;;;;;4939631;29;20047;-85
2023/06/06 02:44:06;;;;;;;8.45;2.78;;;12.20;99.90;;;;;;4938059;29;20118;-87
2023/06/06 02:46:33;;;;;;;8.80;2.63;;;12.20;99.90;;;;;;4938584;29;20099;-86
2023/06/06 02:49:00;;;;;;;9.05;2.70;;;12.20;99.90;;;;;;4937947;29;20067;-84
2023/06/06 02:51:27;;;;;;;11.40;2.80;;;12.20;99.90;;;;;;4937121;29;20043;-87
2023/06/06 02:56:41;;;;;;;12.88;3.95;;;12.10;99.90;;;;;;4936971;29;20054;-84
2023/06/06 02:59:07;;;;;;;11.65;3.30;;;12.20;99.90;;;;;;4937499;29;20675;-85
2023/06/06 03:01:34;;;;;;;7.57;2.80;;;12.20;99.90;;;;;;4937752;29;20130;-84
2023/06/06 03:04:03;;;;;;;7.55;2.63;;;12.10;99.90;;;;;;4936853;29;20367;-84
2023/06/06 03:06:30;;;;;;;9.02;2.72;;;12.20;99.90;;;;;;4937695;29;20073;-84
2023/06/06 03:08:57;;;;;;;8.90;2.88;;;12.30;99.90;;;;;;4937576;29;20043;-86
2023/06/06 03:11:25;;;;;;;7.97;2.60;;;12.20;99.90;;;;;;4952728;29;20513;-84
2023/06/06 03:13:54;;;;;;;7.47;2.55;;;12.20;99.90;;;;;;4937548;29;20127;-85
2023/06/06 03:16:26;;;;;;;6.35;2.20;;;12.20;99.90;;;;;;4937567;29;20052;-86
2023/06/06 03:18:53;;;;;;;9.98;2.72;;;12.20;99.90;;;;;;4936997;29;20066;-88
2023/06/06 03:21:20;;;;;;;10.95;2.42;;;12.10;99.90;;;;;;4953408;29;20110;-87
2023/06/06 03:23:49;;;;;;;6.30;2.22;;;12.10;99.90;;;;;;4936561;29;20047;-84
2023/06/06 03:26:16;;;;;;;8.55;2.65;;;12.10;99.90;;;;;;4953008;29;20040;-86
2023/06/06 03:28:44;;;;;;;9.13;2.70;;;12.10;99.90;;;;;;4937141;29;20065;-83
2023/06/06 03:31:15;;;;;;;9.68;2.80;;;12.10;99.90;;;;;;4936346;29;20466;-85
2023/06/06 03:33:46;;;;;;;6.82;2.58;;;12.10;99.90;;;;;;4937377;29;20047;-86
2023/06/06 03:36:13;;;;;;;7.43;2.60;;;12.10;99.90;;;;;;4937143;29;20056;-84
2023/06/06 03:38:40;;;;;;;14.10;2.83;;;12.10;99.90;;;;;;4936333;29;20078;-84
2023/06/06 03:41:07;;;;;;;9.00;2.88;;;12.10;99.90;;;;;;4953102;29;20055;-86
2023/06/06 03:43:34;;;;;;;9.32;2.40;;;12.10;99.90;;;;;;4936372;29;20528;-83
2023/06/06 03:46:01;;;;;;;8.85;2.45;;;12.10;99.90;;;;;;4937431;29;20196;-84
2023/06/06 03:48:30;;;;;;;7.15;2.70;;;12.10;99.90;;;;;;4952760;29;20040;-83
2023/06/06 03:50:56;;;;;;;6.38;2.30;;;12.10;99.90;;;;;;4952014;29;20040;-85
2023/06/06 03:53:23;;;;;;;9.18;2.85;;;12.10;99.90;;;;;;4936920;29;20509;-85
2023/06/06 03:55:50;;;;;;;9.45;3.03;;;12.10;99.90;;;;;;4937276;29;20382;-83
2023/06/06 03:58:18;;;;;;;7.43;2.55;;;12.10;99.90;;;;;;4951844;29;20435;-84
2023/06/06 04:00:45;;;;;;;11.40;3.13;;;12.10;99.90;;;;;;4952781;29;20557;-84
2023/06/06 04:03:12;;;;;;;8.98;2.75;;;12.10;99.90;;;;;;4936056;29;20054;-86
2023/06/06 04:05:43;;;;;;;8.77;2.70;;;12.10;99.90;;;;;;4936749;29;20134;-85
2023/06/06 04:08:10;;;;;;;8.50;2.93;;;12.10;99.90;;;;;;4936702;29;20044;-87
2023/06/06 04:10:37;;;;;;;9.00;2.33;;;12.20;99.90;;;;;;4951954;29;20058;-84
2023/06/06 04:13:03;;;;;;;8.57;2.53;;;12.10;99.90;;;;;;4936754;29;20142;-85
2023/06/06 04:15:31;;;;;;;9.85;3.30;;;12.20;99.90;;;;;;4936652;29;20044;-85
2023/06/06 04:17:58;;;;;;;12.10;2.85;;;12.10;99.90;;;;;;4951483;29;20051;-84
2023/06/06 04:20:26;;;;;;;10.38;3.13;;;12.10;99.90;;;;;;4939849;29;20138;-86
2023/06/06 04:22:54;;;;;;;9.20;2.70;;;12.10;99.90;;;;;;4940227;29;20066;-85
2023/06/06 04:28:08;;;;;;;9.38;2.72;;;12.20;99.90;;;;;;4957109;29;20134;-85
2023/06/06 04:30:35;;;;;;;9.10;2.67;;;12.20;99.90;;;;;;4940964;29;20497;-85
2023/06/06 04:33:02;;;;;;;12.25;3.15;;;12.30;99.90;;;;;;4957246;29;20110;-86
2023/06/06 04:38:01;;;;;;;7.93;2.60;;;12.30;99.90;;;;;;4954802;29;20043;-84
2023/06/06 04:40:32;;;;;;;10.55;2.75;;;12.30;99.90;;;;;;4955673;29;20039;-84
2023/06/06 04:43:23;;;;;;;6.45;2.58;;;12.30;99.90;;;;;;4944945;29;20058;-84
2023/06/06 04:45:53;;;;;;;12.80;3.08;;;12.30;99.90;;;;;;4943545;29;20046;-84
2023/06/06 04:48:20;;;;;;;7.63;2.50;;;12.30;99.90;;;;;;4959652;29;20058;-84
2023/06/06 04:50:48;;;;;;;8.15;2.80;;;12.40;99.90;;;;;;4946794;29;20051;-86
2023/06/06 04:53:16;;;;;;;9.63;2.70;;;12.40;99.90;;;;;;4947266;29;20073;-86
2023/06/06 04:58:14;;;;;;;4.93;2.05;;;12.50;99.90;;;;;;4960391;29;20054;-87
2023/06/06 05:00:41;;;;;;;11.38;3.15;;;12.50;99.90;;;;;;4944978;29;20146;-86
2023/06/06 05:03:07;;;;;;;11.00;2.95;;;12.50;99.90;;;;;;4960090;29;20534;-85
2023/06/06 05:05:35;;;;;;;9.27;2.75;;;12.50;99.90;;;;;;4959174;29;20450;-86
2023/06/06 05:08:01;;;;;;;12.70;3.17;;;12.50;99.90;;;;;;4943236;29;20062;-86
2023/06/06 05:10:28;;;;;;;10.30;2.45;;;12.60;99.90;;;;;;4957983;29;20043;-84
2023/06/06 05:12:55;;;;;;;7.90;2.25;;;12.60;99.90;;;;;;4943137;29;20051;-86
2023/06/06 05:18:08;;;;;;;8.05;2.70;;;12.70;99.90;;;;;;4959026;28;20586;-84
2023/06/06 05:20:35;;;;;;;9.75;2.90;;;12.60;99.90;;;;;;4939959;29;20047;-84
2023/06/06 05:23:04;;;;;;;7.70;2.25;;;12.60;99.90;;;;;;4941944;29;20467;-84
2023/06/06 05:28:18;;;;;;;14.65;2.72;;;12.60;99.90;;;;;;4956624;29;20485;-85
2023/06/06 05:30:45;;;;;;;13.73;3.08;;;12.70;99.90;;;;;;4940843;29;20036;-87
2023/06/06 05:33:12;;;;;;;11.93;2.42;;;12.80;99.90;;;;;;4940824;29;20058;-84
2023/06/06 05:38:25;;;;;;;5.53;2.40;;;12.90;99.90;;;;;;4940788;29;20063;-87
2023/06/06 05:40:52;;;;;;;7.93;2.45;;;13.00;99.90;;;;;;4956308;29;20071;-86
2023/06/06 05:43:19;;;;;;;9.07;2.90;;;12.90;99.90;;;;;;4939448;29;20043;-87
2023/06/06 05:45:46;;;;;;;8.60;2.90;;;12.90;99.90;;;;;;4939883;29;20056;-85
2023/06/06 05:48:12;;;;;;;8.88;3.03;;;12.90;99.90;;;;;;4939376;29;20040;-84
2023/06/06 05:50:39;;;;;;;10.38;2.75;;;13.00;99.90;;;;;;4938971;29;20146;-85
2023/06/06 05:53:06;;;;;;;9.50;2.55;;;13.00;99.90;;;;;;4954426;28;20036;-84
2023/06/06 05:55:34;;;;;;;12.40;3.00;;;13.10;99.90;;;;;;4939652;29;20040;-85
2023/06/06 05:58:01;;;;;;;17.40;2.72;;;13.20;99.90;;;;;;4938587;29;20055;-84
2023/06/06 06:00:27;;;;;;;9.88;2.58;;;13.30;99.90;;;;;;4939228;29;20048;-84
2023/06/06 06:02:56;;;;;;;5.72;2.30;;;13.20;99.90;;;;;;4939147;29;20054;-86
2023/06/06 06:05:28;;;;;;;10.07;2.50;;;13.30;99.90;;;;;;4939648;29;20462;-86
2023/06/06 06:07:55;;;;;;;;;;;13.40;99.90;;;;;;4939486;29;20486;-87
2023/06/06 06:10:21;;;;;;;9.10;2.08;;;13.50;99.90;;;;;;4938547;29;19922;-85
2023/06/06 06:12:48;;;;;;;9.63;2.58;;;13.40;99.90;;;;;;4955334;29;20044;-85
2023/06/06 06:15:17;;;;;;;7.60;2.63;;;13.50;99.90;;;;;;4938829;29;20043;-85
2023/06/06 06:17:44;;;;;;;9.15;2.50;;;13.60;99.90;;;;;;4937895;29;20047;-86
2023/06/06 06:20:11;;;;;;;11.70;2.60;;;13.70;99.90;;;;;;4954452;29;20071;-86
2023/06/06 06:22:37;;;;;;;7.72;2.80;;;13.70;99.90;;;;;;4938568;29;20435;-86
2023/06/06 06:27:51;;;;;;;9.93;2.80;;;13.80;99.90;;;;;;4954012;29;20537;-85
2023/06/06 06:30:18;;;;;;;6.35;2.45;;;13.80;99.90;;;;;;4953782;29;20459;-86
2023/06/06 06:32:45;;;;;;;7.88;2.47;;;13.90;99.90;;;;;;4938433;29;20040;-87
2023/06/06 06:37:43;;;;;;;10.17;2.90;;;14.00;99.90;;;;;;4953541;29;20118;-87
2023/06/06 06:40:10;;;;;;;7.63;2.53;;;14.00;99.90;;;;;;4938517;29;20075;-88
2023/06/06 06:42:40;;;;;;;9.75;2.38;;;14.10;99.90;;;;;;4938401;29;20055;-86
2023/06/06 06:45:26;;;;;;;11.70;2.95;;;14.20;99.90;;;;;;4937555;29;20142;-87
2023/06/06 06:47:53;;;;;;;8.10;2.13;;;14.20;99.90;;;;;;4940835;29;20066;-85
2023/06/06 06:50:20;;;;;;;7.50;2.65;;;14.20;99.90;;;;;;4956451;29;20086;-85
2023/06/06 06:52:47;;;;;;;10.02;3.00;;;14.40;99.90;;;;;;4957138;29;20054;-86
2023/06/06 06:55:16;;;;;;;9.73;2.75;;;14.60;99.90;;;;;;4957038;29;20435;-86
2023/06/06 06:57:44;;;;;;;14.18;2.92;;;14.80;99.90;;;;;;4972389;28;20378;-86
2023/06/06 07:00:18;;;;;;;7.47;2.60;;;14.80;99.90;;;;;;4957045;28;20141;-86
2023/06/06 07:02:46;;;;;;;10.02;2.80;;;14.80;99.90;;;;;;4956983;29;20481;-86
2023/06/06 07:05:17;;;;;;;7.85;2.90;;;14.80;99.90;;;;;;4955710;28;20389;-86
2023/06/06 07:07:44;;;;;;;9.23;2.58;;;14.80;99.90;;;;;;4956538;29;20047;-85
2023/06/06 07:10:11;;;;;;;9.90;2.90;;;14.70;99.90;;;;;;4955995;29;20070;-85
2023/06/06 07:12:38;;;;;;;11.82;2.65;;;14.80;99.90;;;;;;4972793;28;20462;-86
2023/06/06 07:15:05;;;;;;;10.63;2.75;;;14.90;99.90;;;;;;4973009;28;20044;-89
2023/06/06 07:17:31;;;;;;;15.57;3.03;;;14.90;99.90;;;;;;4971660;28;20505;-88
2023/06/06 07:19:58;;;;;;;8.25;2.80;;;15.00;99.90;;;;;;4972757;28;20406;-86
2023/06/06 07:22:25;;;;;;;6.65;2.63;;;14.90;99.90;;;;;;4953665;29;20062;-86
2023/06/06 07:27:38;;;;;;;10.40;2.85;;;14.90;99.90;;;;;;4937012;29;20445;-87
2023/06/06 07:30:05;;;;;;;8.10;2.50;;;14.90;99.90;;;;;;4945302;28;20470;-86
2023/06/06 07:32:32;;;;;;;8.32;2.85;;;14.90;99.90;;;;;;4956193;29;20050;-85
2023/06/06 07:35:01;;;;;;;13.80;3.63;;;14.90;99.90;;;;;;4947453;29;20039;-84
2023/06/06 07:37:28;;;;;;;12.00;3.10;;;14.90;99.90;;;;;;4955268;29;20051;-85
2023/06/06 07:39:55;;;;;;;11.98;3.58;;;14.90;99.90;;;;;;4972075;28;20043;-83
2023/06/06 07:42:21;;;;;;;9.63;2.78;;;15.10;99.90;;;;;;4955817;29;20051;-84
2023/06/06 07:44:51;;;;;;;8.15;2.40;;;15.20;99.90;;;;;;4951541;28;20450;-83
2023/06/06 07:47:23;;;;;;;11.20;2.95;;;15.20;99.90;;;;;;4951688;29;20054;-84
2023/06/06 07:49:53;;;;;;;7.72;2.88;;;15.30;99.90;;;;;;4935846;29;20130;-83
2023/06/06 07:52:20;;;;;;;11.02;3.50;;;15.40;99.90;;;;;;4920819;29;20467;-82
2023/06/06 07:54:48;;;;;;;11.57;3.42;;;15.40;99.90;;;;;;4920741;29;20050;-84
2023/06/06 07:57:19;;;;;;;9.48;2.85;;;15.40;99.90;;;;;;4919382;29;20467;-85
2023/06/06 07:59:46;;;;;;;10.45;2.75;;;15.40;99.90;;;;;;4936458;29;20047;-84
2023/06/06 08:02:14;;;;;;;8.02;2.85;;;15.40;99.90;;;;;;4936522;29;20059;-84
2023/06/06 08:04:45;;;;;;;6.78;2.50;;;15.60;99.90;;;;;;4936514;29;20381;-85
2023/06/06 08:07:13;;;;;;;12.95;3.95;;;15.80;99.90;;;;;;4950295;28;20051;-86
2023/06/06 08:09:40;;;;;;;10.90;2.95;;;15.80;99.90;;;;;;4971750;28;20073;-84
2023/06/06 08:12:06;;;;;;;8.88;2.78;;;15.60;99.90;;;;;;4970791;28;20047;-84
2023/06/06 08:17:20;;;;;;;9.63;3.33;;;15.70;99.90;;;;;;4955706;29;20039;-86
2023/06/06 08:19:47;;;;;;;7.78;2.65;;;15.80;99.90;;;;;;4971753;28;20039;-85
2023/06/06 08:22:13;;;;;;;8.93;2.80;;;15.80;99.90;;;;;;4971356;28;20043;-83
2023/06/06 08:24:41;;;;;;;11.00;2.70;;;15.90;99.90;;;;;;4954251;29;20043;-84
2023/06/06 08:27:08;;;;;;;7.93;2.63;;;15.90;99.90;;;;;;4955435;28;20055;-86
2023/06/06 08:29:35;;;;;;;10.95;2.65;;;16.10;99.90;;;;;;4955775;29;20039;-87
2023/06/06 08:32:03;;;;;;;13.07;3.33;;;16.10;99.90;;;;;;4970919;28;20098;-85
2023/06/06 08:34:32;;;;;;;11.35;2.67;;;16.30;99.90;;;;;;4955281;29;20737;-85
2023/06/06 08:36:58;;;;;;;8.82;2.60;;;16.30;99.90;;;;;;4954809;29;20047;-85
2023/06/06 08:39:25;;;;;;;6.93;2.60;;;16.30;99.90;;;;;;4951235;29;20040;-85
2023/06/06 08:41:52;;;;;;;14.35;3.80;;;16.30;99.90;;;;;;4936705;29;20048;-86
2023/06/06 08:47:06;;;;;;;10.43;2.78;;;16.40;99.90;;;;;;4937634;29;20059;-84
2023/06/06 08:49:33;;;;;;;8.18;2.80;;;16.60;99.90;;;;;;4941848;29;20187;-86
2023/06/06 08:52:01;;;;;;;9.30;2.78;;;16.60;99.90;;;;;;4956326;29;20136;-86
2023/06/06 08:57:14;;;;;;;8.85;2.42;;;16.30;99.90;;;;;;4946067;29;20063;-85
2023/06/06 08:59:41;;;;;;;8.52;2.97;;;16.50;99.90;;;;;;4955534;29;20114;-86
2023/06/06 09:02:08;;;;;;;6.82;2.50;;;16.70;99.90;;;;;;4941958;29;20450;-86
2023/06/06 09:04:35;;;;;;;7.30;2.63;;;16.70;99.90;;;;;;4941283;29;20047;-86
2023/06/06 09:07:04;;;;;;;7.88;2.88;;;16.50;99.90;;;;;;4958067;28;20130;-86
2023/06/06 09:09:31;;;;;;;8.15;2.55;;;16.30;99.90;;;;;;4958068;28;20058;-86
2023/06/06 09:11:58;;;;;;;6.60;2.53;;;16.30;99.90;;;;;;4957325;29;20047;-86
2023/06/06 09:14:25;;;;;;;9.00;2.92;;;16.20;99.90;;;;;;4957373;29;20582;-85
2023/06/06 09:16:51;;;;;;;10.13;2.67;;;16.30;99.90;;;;;;4940114;29;20051;-86
2023/06/06 09:19:18;;;;;;;10.35;3.08;;;16.40;99.90;;;;;;4940757;29;20047;-86
2023/06/06 09:21:45;;;;;;;13.25;2.72;;;16.50;99.90;;;;;;4940538;29;20552;-86
2023/06/06 09:24:12;;;;;;;14.00;2.88;;;16.50;99.90;;;;;;4939514;29;20035;-86
2023/06/06 09:26:39;;;;;;;13.68;3.28;;;16.60;99.90;;;;;;4940170;29;20086;-85
2023/06/06 09:29:07;;;;;;;8.38;2.53;;;16.50;99.90;;;;;;4958135;28;20043;-86
2023/06/06 09:31:37;;;;;;;10.35;2.80;;;16.60;99.90;;;;;;4942531;29;20043;-86
2023/06/06 09:34:06;;;;;;;9.20;2.60;;;16.70;99.90;;;;;;4943778;29;20051;-86
2023/06/06 09:36:33;;;;;;;7.88;2.75;;;16.70;99.90;;;;;;4942914;29;20433;-87
2023/06/06 09:39:00;;;;;;;9.45;2.42;;;16.70;99.90;;;;;;4943053;29;20051;-86
2023/06/06 09:41:26;;;;;;;8.07;2.40;;;16.80;99.90;;;;;;4943245;29;20039;-85
2023/06/06 09:43:53;;;;;;;7.63;2.45;;;16.80;99.90;;;;;;4942002;29;20051;-86
2023/06/06 09:46:20;;;;;;;8.60;2.60;;;16.70;99.90;;;;;;4958683;29;20047;-86
2023/06/06 09:48:47;;;;;;;9.95;3.28;;;16.70;99.90;;;;;;4942058;29;20075;-87
2023/06/06 09:51:14;;;;;;;12.57;3.30;;;16.60;99.90;;;;;;4941389;29;20050;-87
2023/06/06 09:53:50;;;;;;;9.63;2.53;;;16.50;99.90;;;;;;4942054;29;20147;-86
2023/06/06 09:56:17;;;;;;;12.45;3.08;;;16.30;99.90;;;;;;4957876;29;20089;-86
2023/06/06 09:58:44;;;;;;;9.48;2.45;;;16.30;99.90;;;;;;4940326;29;20047;-86
2023/06/06 10:01:11;;;;;;;11.95;2.80;;;16.50;99.90;;;;;;4941828;29;20051;-86
2023/06/06 10:03:38;;;;;;;11.95;2.85;;;16.60;99.90;;;;;;4940318;29;20117;-87
2023/06/06 10:06:06;;;;;;;9.68;3.13;;;16.70;99.90;;;;;;4957580;29;20051;-87
2023/06/06 10:08:33;;;;;;;10.30;3.05;;;16.70;99.90;;;;;;4957261;29;20054;-86
2023/06/06 10:10:59;;;;;;;11.20;3.08;;;16.70;99.90;;;;;;4939972;29;20135;-87
2023/06/06 10:13:27;;;;;;;8.45;2.80;;;16.70;99.90;;;;;;4957487;29;20055;-86
2023/06/06 10:15:54;;;;;;;11.77;2.97;;;16.40;99.90;;;;;;4941489;29;20070;-86
2023/06/06 10:18:21;;;;;;;10.00;2.70;;;16.30;99.90;;;;;;4955747;29;20054;-86
2023/06/06 10:20:47;;;;;;;9.75;3.45;;;16.30;99.90;;;;;;4941313;29;20082;-86
2023/06/06 10:23:14;;;;;;;7.63;3.00;;;16.50;99.90;;;;;;4956621;29;20485;-86
2023/06/06 10:25:42;;;;;;;11.07;3.00;;;16.90;99.90;;;;;;4941094;29;20143;-86
2023/06/06 10:28:09;;;;;;;13.00;3.17;;;17.10;99.90;;;;;;4940634;29;20110;-86
2023/06/06 10:30:36;;;;;;;11.10;3.25;;;17.20;99.90;;;;;;4940007;29;20382;-86
2023/06/06 10:33:03;;;;;;;6.90;2.53;;;17.00;99.90;;;;;;4957518;29;20378;-87
2023/06/06 10:35:30;;;;;;;8.50;2.70;;;16.80;99.90;;;;;;4944210;29;20047;-87
2023/06/06 10:37:57;;;;;;;8.15;2.70;;;16.80;99.90;;;;;;4939731;29;20047;-87
2023/06/06 10:40:23;;;;;;;8.52;2.53;;;16.80;99.90;;;;;;4956573;28;20078;-86
2023/06/06 10:42:50;;;;;;;9.52;2.70;;;16.80;99.90;;;;;;4940665;29;20113;-87
2023/06/06 10:45:17;;;;;;;7.22;2.33;;;16.80;99.90;;;;;;4939821;29;20066;-86
2023/06/06 10:47:44;;;;;;;7.22;2.45;;;16.80;99.90;;;;;;4940058;29;20105;-86
2023/06/06 10:50:15;;;;;;;8.95;2.55;;;16.90;99.90;;;;;;4940467;29;20053;-86
2023/06/06 10:52:42;;;;;;;11.23;2.80;;;16.80;99.90;;;;;;4940440;29;20481;-86
2023/06/06 10:55:08;;;;;;;8.95;2.83;;;16.60;99.90;;;;;;4940559;29;20043;-86
2023/06/06 10:57:38;;;;;;;8.95;2.70;;;16.70;99.90;;;;;;4939492;29;20054;-87
2023/06/06 11:00:04;;;;;;;9.00;3.03;;;16.80;99.90;;;;;;4940469;29;20047;-86
2023/06/06 11:02:31;;;;;;;9.73;2.60;;;16.70;99.90;;;;;;4939906;29;20047;-86
2023/06/06 11:04:58;;;;;;;9.27;2.58;;;16.70;99.90;;;;;;4955610;29;20047;-86
2023/06/06 11:07:25;;;;;;;9.95;3.03;;;16.70;99.90;;;;;;4940166;29;20043;-86
2023/06/06 11:09:52;;;;;;;10.18;3.00;;;16.80;99.90;;;;;;4939146;29;20047;-86
2023/06/06 11:12:19;;;;;;;9.52;3.08;;;16.90;99.90;;;;;;4940663;29;20039;-86
2023/06/06 11:14:45;;;;;;;7.90;2.72;;;17.20;99.90;;;;;;4940525;29;20043;-86
2023/06/06 11:17:12;;;;;;;7.90;2.70;;;17.50;99.90;;;;;;4939088;29;20121;-85
2023/06/06 11:19:40;;;;;;;8.43;2.97;;;17.50;99.90;;;;;;4940448;29;20441;-86
2023/06/06 11:22:07;;;;;;;6.82;2.70;;;17.70;99.90;;;;;;4939781;29;20043;-86
2023/06/06 11:24:35;;;;;;;10.65;3.03;;;17.90;99.90;;;;;;4939279;29;20054;-86
2023/06/06 11:27:02;;;;;;;6.53;2.53;;;18.40;99.90;;;;;;4955533;29;20055;-87
2023/06/06 11:29:31;;;;;;;7.28;2.72;;;18.90;99.90;;;;;;4940369;29;20462;-86
2023/06/06 11:31:58;;;;;;;8.82;3.13;;;19.00;99.90;;;;;;4955501;29;20374;-86
2023/06/06 11:34:24;;;;;;;13.75;3.80;;;19.10;99.90;;;;;;4939898;29;20047;-87
2023/06/06 11:36:51;;;;;;;10.18;3.15;;;19.20;99.90;;;;;;4939106;29;20043;-86
2023/06/06 11:39:19;;;;;;;7.53;2.95;;;18.90;99.90;;;;;;4940074;29;20442;-86
2023/06/06 11:41:45;;;;;;;7.43;2.97;;;18.80;99.90;;;;;;4939922;29;20061;-87
2023/06/06 11:44:14;;;;;;;8.30;2.90;;;18.70;99.90;;;;;;4939197;29;20046;-87
2023/06/06 11:46:40;;;;;;;9.52;2.97;;;18.50;99.90;;;;;;4940232;29;20066;-86
2023/06/06 11:49:07;;;;;;;10.73;3.22;;;18.50;99.90;;;;;;4939338;29;20168;-86
2023/06/06 11:51:34;;;;;;;6.43;2.65;;;18.30;99.90;;;;;;4937746;29;20039;-86
2023/06/06 11:54:01;;;;;;;9.63;3.38;;;18.30;99.90;;;;;;4955641;29;20047;-86
2023/06/06 11:56:28;;;;;;;8.35;3.10;;;18.30;99.90;;;;;;4939320;29;20039;-86
2023/06/06 11:58:55;;;;;;;7.82;2.90;;;18.20;99.90;;;;;;4939138;29;20118;-86
2023/06/06 12:01:23;;;;;;;10.38;2.97;;;18.20;99.90;;;;;;4956693;29;20050;-86
2023/06/06 12:03:51;;;;;;;7.85;2.90;;;18.30;99.90;;;;;;4954840;29;20047;-87
2023/06/06 12:06:18;;;;;;;7.75;2.70;;;18.50;99.90;;;;;;4939498;29;20071;-87
2023/06/06 12:08:44;;;;;;;9.00;3.13;;;18.60;99.90;;;;;;4938835;29;20047;-86
2023/06/06 12:11:11;;;;;;;6.10;2.63;;;19.00;99.90;;;;;;4954434;29;20038;-86
2023/06/06 12:13:38;;;;;;;6.93;2.70;;;19.00;99.90;;;;;;4955150;29;20044;-86
2023/06/06 12:16:05;;;;;;;11.40;3.22;;;18.90;99.90;;;;;;4955954;29;20066;-86
2023/06/06 12:18:31;;;;;;;10.45;3.10;;;19.00;99.90;;;;;;4938503;29;20446;-87
2023/06/06 12:20:58;;;;;;;8.82;2.80;;;18.90;99.90;;;;;;4939444;29;20103;-87
2023/06/06 12:23:25;;;;;;;7.88;2.40;;;18.90;99.90;;;;;;4938660;29;20051;-87
2023/06/06 12:25:52;;;;;;;10.35;3.20;;;18.80;99.90;;;;;;4939559;29;20055;-86
2023/06/06 12:28:20;;;;;;;6.97;2.85;;;19.10;99.90;;;;;;4938855;29;20063;-87
2023/06/06 12:30:49;;;;;;;9.70;3.35;;;19.20;99.90;;;;;;4938503;29;20378;-86
2023/06/06 12:33:16;;;;;;;8.00;2.65;;;19.40;99.90;;;;;;4939529;29;20047;-85
2023/06/06 12:35:45;;;;;;;8.52;3.00;;;19.20;99.90;;;;;;4939000;29;20039;-86
2023/06/06 12:38:11;;;;;;;10.40;3.10;;;19.40;99.90;;;;;;4938129;29;20062;-86
2023/06/06 12:40:44;;;;;;;8.40;2.95;;;19.30;99.90;;;;;;4939064;29;20055;-86
2023/06/06 12:43:10;;;;;;;5.95;2.63;;;19.50;99.90;;;;;;4953616;29;20203;-86
2023/06/06 12:45:38;;;;;;;9.00;2.78;;;19.90;99.90;;;;;;4939171;29;20426;-87
2023/06/06 12:48:05;;;;;;;9.63;3.05;;;19.90;99.90;;;;;;4938881;29;20043;-87
2023/06/06 12:50:32;;;;;;;8.25;2.88;;;19.70;99.90;;;;;;4938364;29;20043;-88
2023/06/06 12:52:59;;;;;;;9.82;3.05;;;19.60;99.90;;;;;;4955233;29;20039;-87
2023/06/06 12:55:26;;;;;;;8.32;2.90;;;20.00;99.90;;;;;;4939285;29;20472;-87
2023/06/06 12:57:53;;;;;;;7.65;2.70;;;19.80;99.90;;;;;;4938076;29;20066;-86
2023/06/06 13:00:20;;;;;;;8.63;2.97;;;19.80;99.90;;;;;;4955026;29;20080;-87
2023/06/06 13:02:47;;;;;;;8.00;3.15;;;19.50;99.90;;;;;;4956036;28;20106;-86
2023/06/06 13:05:14;;;;;;;7.53;2.83;;;19.50;99.90;;;;;;4941637;29;20043;-87
2023/06/06 13:07:41;;;;;;;7.53;2.42;;;20.10;99.90;;;;;;4942541;29;20066;-88
2023/06/06 13:10:08;;;;;;;7.22;3.10;;;20.50;99.90;;;;;;4942200;29;20702;-87
2023/06/06 13:12:36;;;;;;;7.82;2.65;;;20.50;99.90;;;;;;4943974;29;20051;-87
2023/06/06 13:15:02;;;;;;;10.05;2.78;;;20.40;99.90;;;;;;4944023;29;20039;-87
2023/06/06 13:17:29;;;;;;;9.00;2.90;;;20.30;99.90;;;;;;4941691;29;20047;-88
2023/06/06 13:19:56;;;;;;;10.18;2.80;;;20.60;99.90;;;;;;4942443;29;20051;-87
2023/06/06 13:22:23;;;;;;;7.30;2.83;;;21.30;99.90;;;;;;4942123;29;20077;-88
2023/06/06 13:24:51;;;;;;;9.65;3.13;;;21.00;99.90;;;;;;4941758;29;20414;-87
2023/06/06 13:27:19;;;;;;;10.07;2.80;;;21.10;99.90;;;;;;4942151;29;20150;-87
2023/06/06 13:29:46;;;;;;;10.18;3.10;;;21.00;99.90;;;;;;4942721;29;20054;-87